sensor_id;sensor_type;location;lat;lon;timestamp;P1;durP1;ratioP1;P2;durP2;ratioP2
42144;SDS011;27813;43.516;11.890;2023-05-24T04:34:57;22.30;;;12.20;;
42144;SDS011;27813;43.516;11.890;2023-05-24T04:39:05;7.70;;;5.20;;
42144;SDS011;27813;43.516;11.890;2023-05-24T04:43:13;7.13;;;4.50;;
42144;SDS011;27813;43.516;11.890;2023-05-24T04:51:24;7.75;;;4.20;;
42144;SDS011;27813;43.516;11.890;2023-05-24T04:55:28;7.35;;;4.35;;
42144;SDS011;27813;43.516;11.890;2023-05-24T04:59:34;7.32;;;5.10;;
42144;SDS011;27813;43.516;11.890;2023-05-24T05:03:38;5.70;;;4.63;;
42144;SDS011;27813;43.516;11.890;2023-05-24T05:07:43;10.13;;;8.05;;
42144;SDS011;27813;43.516;11.890;2023-05-24T05:11:48;12.70;;;8.35;;
42144;SDS011;27813;43.516;11.890;2023-05-24T05:15:53;12.10;;;9.32;;
42144;SDS011;27813;43.516;11.890;2023-05-24T05:19:58;17.23;;;13.43;;
42144;SDS011;27813;43.516;11.890;2023-05-24T05:24:03;22.95;;;15.40;;
42144;SDS011;27813;43.516;11.890;2023-05-24T05:28:07;10.77;;;8.43;;
42144;SDS011;27813;43.516;11.890;2023-05-24T05:32:14;7.05;;;5.40;;
42144;SDS011;27813;43.516;11.890;2023-05-24T05:36:19;5.47;;;4.30;;
42144;SDS011;27813;43.516;11.890;2023-05-24T05:40:23;8.73;;;5.32;;
42144;SDS011;27813;43.516;11.890;2023-05-24T05:44:28;7.55;;;4.38;;
42144;SDS011;27813;43.516;11.890;2023-05-24T05:48:34;6.28;;;4.22;;
42144;SDS011;27813;43.516;11.890;2023-05-24T05:52:39;5.63;;;4.38;;
42144;SDS011;27813;43.516;11.890;2023-05-24T05:56:45;4.13;;;3.22;;
42144;SDS011;27813;43.516;11.890;2023-05-24T06:00:50;6.35;;;3.17;;
42144;SDS011;27813;43.516;11.890;2023-05-24T06:05:04;5.85;;;3.40;;
42144;SDS011;27813;43.516;11.890;2023-05-24T06:09:11;3.85;;;2.92;;
42144;SDS011;27813;43.516;11.890;2023-05-24T06:13:17;4.78;;;3.22;;
42144;SDS011;27813;43.516;11.890;2023-05-24T06:17:24;4.78;;;3.38;;
42144;SDS011;27813;43.516;11.890;2023-05-24T06:21:31;4.35;;;2.60;;
42144;SDS011;27813;43.516;11.890;2023-05-24T06:25:35;4.65;;;2.63;;
42144;SDS011;27813;43.516;11.890;2023-05-24T06:29:40;4.60;;;2.85;;
42144;SDS011;27813;43.516;11.890;2023-05-24T06:33:45;5.03;;;2.67;;
42144;SDS011;27813;43.516;11.890;2023-05-24T06:38:05;3.25;;;2.75;;
42144;SDS011;27813;43.516;11.890;2023-05-24T06:42:09;3.53;;;2.70;;
42144;SDS011;27813;43.516;11.890;2023-05-24T06:46:18;4.07;;;2.88;;
42144;SDS011;27813;43.516;11.890;2023-05-24T06:50:22;3.72;;;2.50;;
42144;SDS011;27813;43.516;11.890;2023-05-24T06:54:27;3.65;;;2.60;;
42144;SDS011;27813;43.516;11.890;2023-05-24T06:58:31;3.97;;;2.67;;
42144;SDS011;27813;43.516;11.890;2023-05-24T07:02:35;5.00;;;2.72;;
42144;SDS011;27813;43.516;11.890;2023-05-24T07:06:39;6.00;;;3.03;;
42144;SDS011;27813;43.516;11.890;2023-05-24T07:10:43;3.38;;;2.72;;
42144;SDS011;27813;43.516;11.890;2023-05-24T07:14:47;3.80;;;2.53;;
42144;SDS011;27813;43.516;11.890;2023-05-24T07:18:51;3.47;;;3.10;;
42144;SDS011;27813;43.516;11.890;2023-05-24T07:22:57;3.45;;;3.05;;
42144;SDS011;27813;43.516;11.890;2023-05-24T07:27:02;4.70;;;2.72;;
42144;SDS011;27813;43.516;11.890;2023-05-24T07:31:07;4.35;;;2.78;;
42144;SDS011;27813;43.516;11.890;2023-05-24T07:35:12;4.97;;;3.05;;
42144;SDS011;27813;43.516;11.890;2023-05-24T07:39:16;3.72;;;3.25;;
42144;SDS011;27813;43.516;11.890;2023-05-24T07:43:21;4.40;;;3.17;;
42144;SDS011;27813;43.516;11.890;2023-05-24T07:47:25;3.85;;;2.80;;
42144;SDS011;27813;43.516;11.890;2023-05-24T07:51:30;4.25;;;2.92;;
42144;SDS011;27813;43.516;11.890;2023-05-24T07:55:35;7.07;;;3.35;;
42144;SDS011;27813;43.516;11.890;2023-05-24T07:59:39;2.58;;;2.30;;
42144;SDS011;27813;43.516;11.890;2023-05-24T08:03:44;3.65;;;2.65;;
42144;SDS011;27813;43.516;11.890;2023-05-24T08:07:48;5.35;;;3.08;;
42144;SDS011;27813;43.516;11.890;2023-05-24T08:11:52;4.75;;;2.83;;
42144;SDS011;27813;43.516;11.890;2023-05-24T08:15:56;4.22;;;2.80;;
42144;SDS011;27813;43.516;11.890;2023-05-24T08:20:01;3.42;;;2.83;;
42144;SDS011;27813;43.516;11.890;2023-05-24T08:24:08;3.35;;;3.05;;
42144;SDS011;27813;43.516;11.890;2023-05-24T08:28:12;4.38;;;3.05;;
42144;SDS011;27813;43.516;11.890;2023-05-24T08:32:17;4.80;;;2.88;;
42144;SDS011;27813;43.516;11.890;2023-05-24T08:36:21;5.63;;;3.75;;
42144;SDS011;27813;43.516;11.890;2023-05-24T08:40:25;5.13;;;2.95;;
42144;SDS011;27813;43.516;11.890;2023-05-24T08:44:29;5.35;;;3.50;;
42144;SDS011;27813;43.516;11.890;2023-05-24T08:48:46;4.78;;;3.30;;
42144;SDS011;27813;43.516;11.890;2023-05-24T08:52:50;4.90;;;3.75;;
42144;SDS011;27813;43.516;11.890;2023-05-24T08:56:56;5.68;;;3.63;;
42144;SDS011;27813;43.516;11.890;2023-05-24T09:01:01;7.40;;;3.80;;
42144;SDS011;27813;43.516;11.890;2023-05-24T09:05:10;5.70;;;4.20;;
42144;SDS011;27813;43.516;11.890;2023-05-24T09:09:20;6.03;;;3.80;;
42144;SDS011;27813;43.516;11.890;2023-05-24T09:13:24;5.25;;;3.85;;
42144;SDS011;27813;43.516;11.890;2023-05-24T09:17:30;5.50;;;4.63;;
42144;SDS011;27813;43.516;11.890;2023-05-24T09:21:36;4.80;;;3.70;;
42144;SDS011;27813;43.516;11.890;2023-05-24T09:25:42;5.07;;;4.00;;
42144;SDS011;27813;43.516;11.890;2023-05-24T09:29:48;4.25;;;3.50;;
42144;SDS011;27813;43.516;11.890;2023-05-24T09:33:57;4.45;;;3.67;;
42144;SDS011;27813;43.516;11.890;2023-05-24T09:38:02;5.93;;;3.88;;
42144;SDS011;27813;43.516;11.890;2023-05-24T09:42:06;5.53;;;3.45;;
42144;SDS011;27813;43.516;11.890;2023-05-24T09:46:15;7.47;;;3.50;;
42144;SDS011;27813;43.516;11.890;2023-05-24T09:50:21;5.50;;;3.53;;
42144;SDS011;27813;43.516;11.890;2023-05-24T09:54:26;3.92;;;3.08;;
42144;SDS011;27813;43.516;11.890;2023-05-24T09:58:30;4.55;;;3.50;;
42144;SDS011;27813;43.516;11.890;2023-05-24T10:02:35;3.42;;;2.92;;
42144;SDS011;27813;43.516;11.890;2023-05-24T10:06:54;7.22;;;3.80;;
42144;SDS011;27813;43.516;11.890;2023-05-24T10:11:00;4.05;;;2.95;;
42144;SDS011;27813;43.516;11.890;2023-05-24T10:15:08;6.00;;;3.25;;
42144;SDS011;27813;43.516;11.890;2023-05-24T10:19:14;4.05;;;3.40;;
42144;SDS011;27813;43.516;11.890;2023-05-24T10:23:19;4.07;;;3.17;;
42144;SDS011;27813;43.516;11.890;2023-05-24T10:27:26;4.93;;;3.25;;
42144;SDS011;27813;43.516;11.890;2023-05-24T10:31:35;4.25;;;3.47;;
42144;SDS011;27813;43.516;11.890;2023-05-24T10:35:43;5.03;;;3.40;;
42144;SDS011;27813;43.516;11.890;2023-05-24T10:39:48;4.43;;;3.40;;
42144;SDS011;27813;43.516;11.890;2023-05-24T10:43:54;3.50;;;2.88;;
42144;SDS011;27813;43.516;11.890;2023-05-24T10:52:16;4.68;;;3.08;;
42144;SDS011;27813;43.516;11.890;2023-05-24T10:56:21;4.40;;;3.30;;
42144;SDS011;27813;43.516;11.890;2023-05-24T11:00:26;3.47;;;2.88;;
42144;SDS011;27813;43.516;11.890;2023-05-24T11:04:37;3.80;;;2.58;;
42144;SDS011;27813;43.516;11.890;2023-05-24T11:08:45;6.90;;;2.70;;
42144;SDS011;27813;43.516;11.890;2023-05-24T11:12:56;4.25;;;2.85;;
42144;SDS011;27813;43.516;11.890;2023-05-24T11:17:03;5.35;;;2.63;;
42144;SDS011;27813;43.516;11.890;2023-05-24T11:21:11;5.13;;;2.97;;
42144;SDS011;27813;43.516;11.890;2023-05-24T11:25:17;3.60;;;2.70;;
42144;SDS011;27813;43.516;11.890;2023-05-24T11:29:26;5.47;;;2.97;;
42144;SDS011;27813;43.516;11.890;2023-05-24T11:33:52;3.47;;;2.92;;
42144;SDS011;27813;43.516;11.890;2023-05-24T11:38:02;3.55;;;3.10;;
42144;SDS011;27813;43.516;11.890;2023-05-24T11:42:08;4.03;;;3.00;;
42144;SDS011;27813;43.516;11.890;2023-05-24T11:46:13;2.90;;;2.60;;
42144;SDS011;27813;43.516;11.890;2023-05-24T11:50:22;3.28;;;2.95;;
42144;SDS011;27813;43.516;11.890;2023-05-24T11:54:30;4.00;;;3.05;;
42144;SDS011;27813;43.516;11.890;2023-05-24T11:58:42;4.30;;;2.65;;
42144;SDS011;27813;43.516;11.890;2023-05-24T12:02:55;2.97;;;2.50;;
42144;SDS011;27813;43.516;11.890;2023-05-24T12:07:12;3.28;;;2.70;;
42144;SDS011;27813;43.516;11.890;2023-05-24T12:11:19;3.83;;;2.78;;
42144;SDS011;27813;43.516;11.890;2023-05-24T12:32:03;2.85;;;2.40;;
42144;SDS011;27813;43.516;11.890;2023-05-24T12:36:09;3.10;;;2.25;;
42144;SDS011;27813;43.516;11.890;2023-05-24T12:44:37;6.85;;;2.47;;
42144;SDS011;27813;43.516;11.890;2023-05-24T12:48:41;3.83;;;2.10;;
42144;SDS011;27813;43.516;11.890;2023-05-24T12:52:46;5.55;;;2.22;;
42144;SDS011;27813;43.516;11.890;2023-05-24T12:56:55;4.30;;;1.92;;
42144;SDS011;27813;43.516;11.890;2023-05-24T13:01:05;3.03;;;1.92;;
42144;SDS011;27813;43.516;11.890;2023-05-24T13:05:10;3.45;;;2.20;;
42144;SDS011;27813;43.516;11.890;2023-05-24T13:09:15;3.28;;;2.00;;
42144;SDS011;27813;43.516;11.890;2023-05-24T13:13:25;3.92;;;2.00;;
42144;SDS011;27813;43.516;11.890;2023-05-24T13:17:31;2.88;;;2.10;;
42144;SDS011;27813;43.516;11.890;2023-05-24T13:21:39;3.10;;;2.00;;
42144;SDS011;27813;43.516;11.890;2023-05-24T13:25:44;3.20;;;2.05;;
42144;SDS011;27813;43.516;11.890;2023-05-24T13:29:49;3.72;;;2.50;;
42144;SDS011;27813;43.516;11.890;2023-05-24T13:34:03;4.13;;;1.98;;
42144;SDS011;27813;43.516;11.890;2023-05-24T13:38:08;2.53;;;2.17;;
42144;SDS011;27813;43.516;11.890;2023-05-24T13:42:12;3.95;;;2.25;;
42144;SDS011;27813;43.516;11.890;2023-05-24T13:46:17;3.10;;;2.15;;
42144;SDS011;27813;43.516;11.890;2023-05-24T13:50:21;2.95;;;2.30;;
42144;SDS011;27813;43.516;11.890;2023-05-24T13:54:26;2.90;;;1.98;;
42144;SDS011;27813;43.516;11.890;2023-05-24T13:58:30;3.08;;;2.10;;
42144;SDS011;27813;43.516;11.890;2023-05-24T14:02:34;2.33;;;1.92;;
42144;SDS011;27813;43.516;11.890;2023-05-24T14:06:42;2.97;;;2.03;;
42144;SDS011;27813;43.516;11.890;2023-05-24T14:10:46;3.55;;;1.88;;
42144;SDS011;27813;43.516;11.890;2023-05-24T14:14:52;3.53;;;2.25;;
42144;SDS011;27813;43.516;11.890;2023-05-24T14:19:01;2.70;;;2.15;;
42144;SDS011;27813;43.516;11.890;2023-05-24T14:23:06;2.85;;;2.20;;
42144;SDS011;27813;43.516;11.890;2023-05-24T14:27:12;2.42;;;1.85;;
42144;SDS011;27813;43.516;11.890;2023-05-24T14:31:16;3.90;;;2.42;;
42144;SDS011;27813;43.516;11.890;2023-05-24T14:35:20;5.05;;;2.00;;
42144;SDS011;27813;43.516;11.890;2023-05-24T14:39:24;2.83;;;2.13;;
42144;SDS011;27813;43.516;11.890;2023-05-24T14:43:29;2.97;;;2.25;;
42144;SDS011;27813;43.516;11.890;2023-05-24T14:47:33;4.53;;;2.20;;
42144;SDS011;27813;43.516;11.890;2023-05-24T14:51:38;2.72;;;2.15;;
42144;SDS011;27813;43.516;11.890;2023-05-24T14:55:42;2.92;;;2.20;;
42144;SDS011;27813;43.516;11.890;2023-05-24T14:59:48;5.55;;;2.50;;
42144;SDS011;27813;43.516;11.890;2023-05-24T15:03:52;3.90;;;2.20;;
42144;SDS011;27813;43.516;11.890;2023-05-24T15:07:56;3.53;;;2.30;;
42144;SDS011;27813;43.516;11.890;2023-05-24T15:12:01;3.05;;;2.20;;
42144;SDS011;27813;43.516;11.890;2023-05-24T15:16:07;3.20;;;2.20;;
42144;SDS011;27813;43.516;11.890;2023-05-24T15:20:11;3.83;;;2.65;;
42144;SDS011;27813;43.516;11.890;2023-05-24T15:24:15;4.03;;;2.28;;
42144;SDS011;27813;43.516;11.890;2023-05-24T15:28:20;3.72;;;2.40;;
42144;SDS011;27813;43.516;11.890;2023-05-24T15:32:27;4.38;;;2.20;;
42144;SDS011;27813;43.516;11.890;2023-05-24T15:36:33;2.60;;;2.03;;
42144;SDS011;27813;43.516;11.890;2023-05-24T15:40:39;3.33;;;2.20;;
42144;SDS011;27813;43.516;11.890;2023-05-24T15:44:45;5.40;;;2.38;;
42144;SDS011;27813;43.516;11.890;2023-05-24T15:48:49;3.53;;;1.70;;
42144;SDS011;27813;43.516;11.890;2023-05-24T15:52:53;2.75;;;1.90;;
42144;SDS011;27813;43.516;11.890;2023-05-24T15:56:58;3.60;;;1.90;;
42144;SDS011;27813;43.516;11.890;2023-05-24T16:01:04;2.70;;;1.85;;
42144;SDS011;27813;43.516;11.890;2023-05-24T16:05:11;3.40;;;2.33;;
42144;SDS011;27813;43.516;11.890;2023-05-24T16:09:17;3.22;;;2.38;;
42144;SDS011;27813;43.516;11.890;2023-05-24T16:13:22;3.92;;;2.28;;
42144;SDS011;27813;43.516;11.890;2023-05-24T16:17:27;6.97;;;3.47;;
42144;SDS011;27813;43.516;11.890;2023-05-24T16:21:32;5.50;;;3.25;;
42144;SDS011;27813;43.516;11.890;2023-05-24T16:25:37;7.10;;;3.10;;
42144;SDS011;27813;43.516;11.890;2023-05-24T16:29:41;3.65;;;3.00;;
42144;SDS011;27813;43.516;11.890;2023-05-24T16:33:48;3.17;;;2.30;;
42144;SDS011;27813;43.516;11.890;2023-05-24T16:37:53;3.90;;;2.97;;
42144;SDS011;27813;43.516;11.890;2023-05-24T16:42:01;5.55;;;2.85;;
42144;SDS011;27813;43.516;11.890;2023-05-24T16:46:06;3.53;;;2.42;;
42144;SDS011;27813;43.516;11.890;2023-05-24T16:50:10;4.57;;;2.83;;
42144;SDS011;27813;43.516;11.890;2023-05-24T16:54:18;3.35;;;2.08;;
42144;SDS011;27813;43.516;11.890;2023-05-24T16:58:24;3.88;;;2.17;;
42144;SDS011;27813;43.516;11.890;2023-05-24T17:02:33;2.88;;;2.20;;
42144;SDS011;27813;43.516;11.890;2023-05-24T17:06:37;3.22;;;2.45;;
42144;SDS011;27813;43.516;11.890;2023-05-24T17:10:57;3.13;;;2.60;;
42144;SDS011;27813;43.516;11.890;2023-05-24T17:15:36;5.13;;;3.20;;
42144;SDS011;27813;43.516;11.890;2023-05-24T17:19:41;3.67;;;2.63;;
42144;SDS011;27813;43.516;11.890;2023-05-24T17:23:48;3.47;;;2.40;;
42144;SDS011;27813;43.516;11.890;2023-05-24T17:27:52;3.63;;;2.63;;
42144;SDS011;27813;43.516;11.890;2023-05-24T17:31:56;3.33;;;2.92;;
42144;SDS011;27813;43.516;11.890;2023-05-24T17:36:00;4.03;;;2.60;;
42144;SDS011;27813;43.516;11.890;2023-05-24T17:40:06;3.00;;;2.53;;
42144;SDS011;27813;43.516;11.890;2023-05-24T17:44:11;5.32;;;2.72;;
42144;SDS011;27813;43.516;11.890;2023-05-24T17:48:16;4.45;;;2.55;;
42144;SDS011;27813;43.516;11.890;2023-05-24T17:52:20;6.70;;;3.25;;
42144;SDS011;27813;43.516;11.890;2023-05-24T17:56:25;4.88;;;3.08;;
42144;SDS011;27813;43.516;11.890;2023-05-24T18:00:29;3.92;;;2.97;;
42144;SDS011;27813;43.516;11.890;2023-05-24T18:04:34;3.75;;;3.03;;
42144;SDS011;27813;43.516;11.890;2023-05-24T18:08:38;3.85;;;3.20;;
42144;SDS011;27813;43.516;11.890;2023-05-24T18:12:45;4.55;;;2.65;;
42144;SDS011;27813;43.516;11.890;2023-05-24T18:16:50;4.82;;;3.38;;
42144;SDS011;27813;43.516;11.890;2023-05-24T18:20:55;6.68;;;3.42;;
42144;SDS011;27813;43.516;11.890;2023-05-24T18:24:59;14.13;;;4.53;;
42144;SDS011;27813;43.516;11.890;2023-05-24T18:29:06;15.13;;;5.80;;
42144;SDS011;27813;43.516;11.890;2023-05-24T18:33:10;16.77;;;4.82;;
42144;SDS011;27813;43.516;11.890;2023-05-24T18:37:18;21.58;;;5.20;;
42144;SDS011;27813;43.516;11.890;2023-05-24T18:41:25;12.10;;;5.80;;
42144;SDS011;27813;43.516;11.890;2023-05-24T18:45:29;8.20;;;5.28;;
42144;SDS011;27813;43.516;11.890;2023-05-24T18:49:35;13.38;;;5.60;;
42144;SDS011;27813;43.516;11.890;2023-05-24T18:53:39;13.02;;;5.57;;
42144;SDS011;27813;43.516;11.890;2023-05-24T18:57:45;13.25;;;5.00;;
42144;SDS011;27813;43.516;11.890;2023-05-24T19:01:59;6.50;;;4.10;;
42144;SDS011;27813;43.516;11.890;2023-05-24T19:06:04;7.45;;;4.63;;
42144;SDS011;27813;43.516;11.890;2023-05-24T19:10:08;6.22;;;4.57;;
42144;SDS011;27813;43.516;11.890;2023-05-24T19:14:14;7.28;;;4.78;;
42144;SDS011;27813;43.516;11.890;2023-05-24T19:18:22;8.48;;;4.65;;
42144;SDS011;27813;43.516;11.890;2023-05-24T19:22:27;8.88;;;5.10;;
42144;SDS011;27813;43.516;11.890;2023-05-24T19:26:31;8.70;;;5.28;;
42144;SDS011;27813;43.516;11.890;2023-05-24T19:30:35;11.57;;;5.75;;
42144;SDS011;27813;43.516;11.890;2023-05-24T19:34:39;11.10;;;7.05;;
42144;SDS011;27813;43.516;11.890;2023-05-24T19:38:44;10.65;;;6.50;;
42144;SDS011;27813;43.516;11.890;2023-05-24T19:42:52;9.70;;;6.95;;
42144;SDS011;27813;43.516;11.890;2023-05-24T19:46:58;10.43;;;6.18;;
42144;SDS011;27813;43.516;11.890;2023-05-24T19:51:04;8.35;;;5.55;;
42144;SDS011;27813;43.516;11.890;2023-05-24T19:55:10;9.15;;;5.60;;
42144;SDS011;27813;43.516;11.890;2023-05-24T19:59:16;8.90;;;6.13;;
42144;SDS011;27813;43.516;11.890;2023-05-24T20:03:27;10.13;;;6.25;;
42144;SDS011;27813;43.516;11.890;2023-05-24T20:07:35;12.20;;;6.55;;
42144;SDS011;27813;43.516;11.890;2023-05-24T20:11:40;9.48;;;5.55;;
42144;SDS011;27813;43.516;11.890;2023-05-24T20:15:52;8.63;;;6.07;;
42144;SDS011;27813;43.516;11.890;2023-05-24T20:19:59;7.68;;;5.15;;
42144;SDS011;27813;43.516;11.890;2023-05-24T20:24:05;7.70;;;5.13;;
42144;SDS011;27813;43.516;11.890;2023-05-24T20:28:10;5.13;;;4.47;;
42144;SDS011;27813;43.516;11.890;2023-05-24T20:32:36;7.47;;;5.50;;
42144;SDS011;27813;43.516;11.890;2023-05-24T20:36:41;6.97;;;4.70;;
42144;SDS011;27813;43.516;11.890;2023-05-24T20:40:47;7.03;;;4.72;;
42144;SDS011;27813;43.516;11.890;2023-05-24T20:44:52;9.25;;;5.40;;
42144;SDS011;27813;43.516;11.890;2023-05-24T20:48:59;7.90;;;5.18;;
42144;SDS011;27813;43.516;11.890;2023-05-24T20:53:04;5.35;;;4.10;;
42144;SDS011;27813;43.516;11.890;2023-05-24T20:57:09;7.97;;;4.28;;
42144;SDS011;27813;43.516;11.890;2023-05-24T21:01:14;6.72;;;5.45;;
42144;SDS011;27813;43.516;11.890;2023-05-24T21:05:20;4.97;;;4.10;;
42144;SDS011;27813;43.516;11.890;2023-05-24T21:19:04;4.97;;;3.70;;
42144;SDS011;27813;43.516;11.890;2023-05-24T21:23:37;5.28;;;3.15;;
42144;SDS011;27813;43.516;11.890;2023-05-24T21:27:47;6.20;;;3.08;;
42144;SDS011;27813;43.516;11.890;2023-05-24T21:32:01;5.80;;;3.15;;
42144;SDS011;27813;43.516;11.890;2023-05-24T21:36:10;4.95;;;3.53;;
42144;SDS011;27813;43.516;11.890;2023-05-24T21:40:32;5.15;;;3.38;;
42144;SDS011;27813;43.516;11.890;2023-05-24T21:44:41;4.05;;;3.15;;
42144;SDS011;27813;43.516;11.890;2023-05-24T21:48:52;6.18;;;3.30;;
42144;SDS011;27813;43.516;11.890;2023-05-24T21:53:02;4.35;;;3.08;;
42144;SDS011;27813;43.516;11.890;2023-05-24T21:57:10;5.30;;;3.38;;
42144;SDS011;27813;43.516;11.890;2023-05-24T22:01:15;4.43;;;2.80;;
42144;SDS011;27813;43.516;11.890;2023-05-24T22:05:22;4.93;;;3.50;;
42144;SDS011;27813;43.516;11.890;2023-05-24T22:09:43;4.05;;;3.20;;
42144;SDS011;27813;43.516;11.890;2023-05-24T22:13:55;5.35;;;2.92;;
42144;SDS011;27813;43.516;11.890;2023-05-24T22:18:26;4.60;;;3.30;;
42144;SDS011;27813;43.516;11.890;2023-05-24T22:23:01;5.18;;;2.90;;
42144;SDS011;27813;43.516;11.890;2023-05-24T22:27:13;4.95;;;3.13;;
42144;SDS011;27813;43.516;11.890;2023-05-24T22:31:35;5.45;;;2.90;;
42144;SDS011;27813;43.516;11.890;2023-05-24T22:35:41;4.47;;;3.17;;
42144;SDS011;27813;43.516;11.890;2023-05-24T22:39:46;5.18;;;3.38;;
42144;SDS011;27813;43.516;11.890;2023-05-24T22:43:52;6.25;;;2.97;;
42144;SDS011;27813;43.516;11.890;2023-05-24T22:48:04;6.43;;;3.13;;
42144;SDS011;27813;43.516;11.890;2023-05-24T22:52:13;6.38;;;3.15;;
42144;SDS011;27813;43.516;11.890;2023-05-24T22:56:24;4.65;;;3.33;;
42144;SDS011;27813;43.516;11.890;2023-05-24T23:00:29;6.28;;;4.00;;
42144;SDS011;27813;43.516;11.890;2023-05-24T23:04:33;5.53;;;2.60;;
42144;SDS011;27813;43.516;11.890;2023-05-24T23:08:40;4.22;;;2.80;;
42144;SDS011;27813;43.516;11.890;2023-05-24T23:12:45;5.60;;;2.88;;
42144;SDS011;27813;43.516;11.890;2023-05-24T23:16:54;4.43;;;2.83;;
42144;SDS011;27813;43.516;11.890;2023-05-24T23:21:02;4.82;;;3.10;;
42144;SDS011;27813;43.516;11.890;2023-05-24T23:25:10;4.95;;;3.50;;
42144;SDS011;27813;43.516;11.890;2023-05-24T23:29:17;4.05;;;2.85;;
